Time,TemperatureF,DewpointF,PressureIn,WindDirection,WindDirectionDegrees,WindSpeedMPH,WindSpeedGustMPH,Humidity,HourlyPrecipIn,Conditions,Clouds,dailyrainin,SoftwareType,DateUTC
2014-11-22 00:00:00,48.8,43.5,29.62,West,269,10.0,10.0,82,0.00,,,1.00,Wunderground v.1.15,2014-11-22 08:00:00,
2014-11-22 00:05:00,48.7,43.8,29.62,WSW,258,10.0,10.0,83,0.00,,,0.00,Wunderground v.1.15,2014-11-22 08:05:00,
2014-11-22 00:10:00,48.5,43.3,29.63,WSW,257,8.0,8.0,82,0.00,,,0.00,Wunderground v.1.15,2014-11-22 08:10:00,
2014-11-22 00:20:00,48.7,42.8,29.64,West,263,10.0,11.0,80,0.00,,,0.00,Wunderground v.1.15,2014-11-22 08:20:00,
2014-11-22 00:25:00,48.7,42.8,29.64,West,269,9.0,11.0,80,0.00,,,0.00,Wunderground v.1.15,2014-11-22 08:25:00,
2014-11-22 00:30:00,48.6,43.0,29.64,West,271,7.0,10.0,81,0.00,,,0.00,Wunderground v.1.15,2014-11-22 08:30:00,
2014-11-22 00:40:00,48.7,43.1,29.65,West,271,8.0,8.0,81,0.00,,,0.00,Wunderground v.1.15,2014-11-22 08:40:00,
2014-11-22 00:50:00,48.5,43.3,29.65,West,281,7.0,9.0,82,0.00,,,0.00,Wunderground v.1.15,2014-11-22 08:50:00,
2014-11-22 01:00:00,48.6,43.4,29.66,WNW,284,9.0,9.0,82,0.00,,,0.00,Wunderground v.1.15,2014-11-22 09:00:00,
2014-11-22 01:05:00,48.6,43.4,29.66,West,281,9.0,9.0,82,0.00,,,0.00,Wunderground v.1.15,2014-11-22 09:05:00,
2014-11-22 01:15:00,48.2,43.6,29.67,West,273,8.0,9.0,84,0.00,,,0.00,Wunderground v.1.15,2014-11-22 09:15:00,
2014-11-22 01:20:00,48.1,43.5,29.67,West,271,8.0,8.0,84,0.00,,,0.00,Wunderground v.1.15,2014-11-22 09:20:00,
2014-11-22 01:25:00,48.1,43.5,29.67,West,277,7.0,8.0,84,0.00,,,0.00,Wunderground v.1.15,2014-11-22 09:25:00,
2014-11-22 01:35:00,48.1,43.2,29.67,West,263,5.0,6.0,83,0.00,,,0.00,Wunderground v.1.15,2014-11-22 09:35:00,
2014-11-22 01:40:00,47.9,43.0,29.68,West,263,3.0,3.0,83,0.00,,,0.00,Wunderground v.1.15,2014-11-22 09:40:00,
2014-11-22 01:45:00,47.5,42.6,29.68,West,263,1.0,3.0,83,0.00,,,0.00,Wunderground v.1.15,2014-11-22 09:45:00,
2014-11-22 01:55:00,45.8,41.9,29.69,West,263,0.0,1.0,86,0.00,,,0.00,Wunderground v.1.15,2014-11-22 09:55:00,
2014-11-22 02:00:00,45.3,41.7,29.69,West,263,0.0,0.0,87,0.00,,,0.00,Wunderground v.1.15,2014-11-22 10:00:00,
2014-11-22 02:10:00,44.5,41.2,29.70,West,263,0.0,0.0,88,0.00,,,0.00,Wunderground v.1.15,2014-11-22 10:10:00,
2014-11-22 02:20:00,44.7,41.9,29.70,West,263,1.0,1.0,90,0.00,,,0.00,Wunderground v.1.15,2014-11-22 10:20:00,
2014-11-22 02:25:00,44.9,42.1,29.71,West,263,0.0,2.0,90,0.00,,,0.00,Wunderground v.1.15,2014-11-22 10:25:00,
2014-11-22 02:30:00,44.8,42.0,29.70,West,263,1.0,1.0,90,0.00,,,0.00,Wunderground v.1.15,2014-11-22 10:30:00,
2014-11-22 02:40:00,44.5,42.0,29.71,West,263,1.0,1.0,91,0.00,,,0.00,Wunderground v.1.15,2014-11-22 10:40:00,
2014-11-22 02:45:00,44.3,41.8,29.71,West,263,1.0,1.0,91,0.00,,,0.00,Wunderground v.1.15,2014-11-22 10:45:00,
2014-11-22 02:55:00,43.6,41.4,29.71,West,263,1.0,2.0,92,0.00,,,0.00,Wunderground v.1.15,2014-11-22 10:55:00,
2014-11-22 03:00:00,43.6,41.4,29.71,West,263,1.0,1.0,92,0.00,,,0.00,Wunderground v.1.15,2014-11-22 11:00:00,
2014-11-22 03:10:00,43.2,41.0,29.72,West,263,1.0,3.0,92,0.00,,,0.00,Wunderground v.1.15,2014-11-22 11:10:00,
2014-11-22 03:15:00,42.7,40.5,29.72,West,263,1.0,3.0,92,0.00,,,0.00,Wunderground v.1.15,2014-11-22 11:15:00,
2014-11-22 03:24:00,42.3,40.4,29.72,West,263,0.0,1.0,93,0.00,,,0.00,Wunderground v.1.15,2014-11-22 11:24:00,
2014-11-22 03:30:00,42.5,40.6,29.72,West,263,0.0,1.0,93,0.00,,,0.00,Wunderground v.1.15,2014-11-22 11:30:00,
2014-11-22 03:35:00,42.3,40.4,29.72,West,263,1.0,1.0,93,0.00,,,0.00,Wunderground v.1.15,2014-11-22 11:35:00,
2014-11-22 03:40:00,42.2,40.6,29.72,West,263,1.0,1.0,94,0.00,,,0.00,Wunderground v.1.15,2014-11-22 11:40:00,
2014-11-22 03:50:00,42.3,40.7,29.72,West,263,1.0,1.0,94,0.00,,,0.00,Wunderground v.1.15,2014-11-22 11:50:00,
2014-11-22 04:00:00,42.0,40.4,29.72,West,263,0.0,0.0,94,0.00,,,0.00,Wunderground v.1.15,2014-11-22 12:00:00,
2014-11-22 04:10:00,41.1,39.2,29.72,West,263,0.0,0.0,93,0.00,,,0.00,Wunderground v.1.15,2014-11-22 12:10:00,
2014-11-22 04:15:00,40.5,38.6,29.72,West,263,0.0,0.0,93,0.00,,,0.00,Wunderground v.1.15,2014-11-22 12:15:00,
2014-11-22 04:20:00,40.3,38.7,29.72,West,263,0.0,0.0,94,0.00,,,0.00,Wunderground v.1.15,2014-11-22 12:20:00,
2014-11-22 04:29:00,40.2,38.6,29.72,West,263,0.0,0.0,94,0.00,,,0.00,Wunderground v.1.15,2014-11-22 12:29:00,
2014-11-22 04:35:00,40.6,39.3,29.72,West,263,0.0,1.0,95,0.00,,,0.00,Wunderground v.1.15,2014-11-22 12:35:00,
2014-11-22 04:40:00,40.8,39.5,29.72,West,263,1.0,1.0,95,0.00,,,0.00,Wunderground v.1.15,2014-11-22 12:40:00,
2014-11-22 04:45:00,40.8,39.5,29.72,West,263,0.0,1.0,95,0.00,,,0.00,Wunderground v.1.15,2014-11-22 12:45:00,
2014-11-22 04:55:00,41.0,39.7,29.72,West,263,0.0,0.0,95,0.00,,,0.00,Wunderground v.1.15,2014-11-22 12:55:00,
2014-11-22 05:00:00,40.9,39.6,29.72,West,263,0.0,2.0,95,0.00,,,0.00,Wunderground v.1.15,2014-11-22 13:00:00,
2014-11-22 05:10:00,39.5,37.9,29.72,West,263,1.0,1.0,94,0.00,,,0.00,Wunderground v.1.15,2014-11-22 13:10:00,
2014-11-22 05:19:00,38.7,37.4,29.72,West,263,1.0,3.0,95,0.00,,,0.00,Wunderground v.1.15,2014-11-22 13:19:00,
2014-11-22 05:25:00,38.8,37.8,29.72,West,263,1.0,3.0,96,0.00,,,0.00,Wunderground v.1.15,2014-11-22 13:25:00,
2014-11-22 05:30:00,38.9,37.9,29.73,West,263,0.0,2.0,96,0.00,,,0.00,Wunderground v.1.15,2014-11-22 13:30:00,
2014-11-22 05:35:00,38.9,37.9,29.73,West,263,0.0,2.0,96,0.00,,,0.00,Wunderground v.1.15,2014-11-22 13:35:00,
2014-11-22 05:40:00,39.1,38.1,29.72,West,263,0.0,0.0,96,0.00,,,0.00,Wunderground v.1.15,2014-11-22 13:40:00,
2014-11-22 05:45:00,39.1,38.1,29.73,West,263,0.0,0.0,96,0.00,,,0.00,Wunderground v.1.15,2014-11-22 13:45:00,
2014-11-22 05:55:00,39.2,38.2,29.72,West,263,0.0,0.0,96,0.00,,,0.00,Wunderground v.1.15,2014-11-22 13:55:00,
2014-11-22 06:00:00,39.2,38.2,29.72,West,263,0.0,0.0,96,0.00,,,0.00,Wunderground v.1.15,2014-11-22 14:00:00,
2014-11-22 06:10:00,39.5,38.5,29.73,West,263,0.0,0.0,96,0.00,,,0.00,Wunderground v.1.15,2014-11-22 14:10:00,
2014-11-22 06:15:00,39.6,38.6,29.73,West,263,0.0,1.0,96,0.00,,,0.00,Wunderground v.1.15,2014-11-22 14:15:00,
2014-11-22 06:25:00,39.9,39.1,29.73,West,263,0.0,2.0,97,0.00,,,0.00,Wunderground v.1.15,2014-11-22 14:25:00,
2014-11-22 06:35:00,39.8,38.8,29.73,West,263,1.0,1.0,96,0.00,,,0.00,Wunderground v.1.15,2014-11-22 14:35:00,
2014-11-22 06:40:00,39.8,38.8,29.73,West,261,1.0,3.0,96,0.00,,,0.00,Wunderground v.1.15,2014-11-22 14:40:00,
2014-11-22 06:50:00,39.9,39.1,29.73,SSE,154,3.0,4.0,97,0.00,,,0.00,Wunderground v.1.15,2014-11-22 14:50:00,
2014-11-22 06:55:00,39.9,39.1,29.73,SSE,163,4.0,4.0,97,0.00,,,0.00,Wunderground v.1.15,2014-11-22 14:55:00,
2014-11-22 07:00:00,39.8,38.8,29.74,SSE,167,4.0,5.0,96,0.00,,,0.00,Wunderground v.1.15,2014-11-22 15:00:00,
2014-11-22 07:10:00,39.6,38.6,29.74,SSE,161,5.0,5.0,96,0.00,,,0.00,Wunderground v.1.15,2014-11-22 15:10:00,
2014-11-22 07:15:00,39.6,38.8,29.74,SSE,153,5.0,5.0,97,0.00,,,0.00,Wunderground v.1.15,2014-11-22 15:15:00,
2014-11-22 07:20:00,39.6,38.8,29.74,SSE,153,5.0,7.0,97,0.00,,,0.00,Wunderground v.1.15,2014-11-22 15:20:00,
2014-11-22 07:25:00,39.6,38.8,29.74,SE,130,6.0,7.0,97,0.00,,,0.00,Wunderground v.1.15,2014-11-22 15:25:00,
2014-11-22 07:30:00,39.8,39.0,29.74,SE,135,6.0,6.0,97,0.00,,,0.00,Wunderground v.1.15,2014-11-22 15:30:00,
2014-11-22 07:40:00,40.1,39.3,29.75,SE,146,5.0,7.0,97,0.00,,,0.00,Wunderground v.1.15,2014-11-22 15:40:00,
2014-11-22 07:45:00,40.2,39.4,29.75,SSE,159,5.0,7.0,97,0.00,,,0.00,Wunderground v.1.15,2014-11-22 15:45:00,
2014-11-22 07:55:00,40.1,39.3,29.76,SSE,157,4.0,5.0,97,0.00,,,0.01,Wunderground v.1.15,2014-11-22 15:55:00,
2014-11-22 08:00:00,40.2,39.4,29.79,WNW,298,6.0,11.0,97,0.08,,,0.02,Wunderground v.1.15,2014-11-22 16:00:00,
2014-11-22 08:05:00,41.3,40.8,29.79,West,275,7.0,11.0,98,0.18,,,0.04,Wunderground v.1.15,2014-11-22 16:05:00,
2014-11-22 08:15:00,41.7,40.9,29.79,NNW,331,6.0,6.0,97,0.23,,,0.07,Wunderground v.1.15,2014-11-22 16:15:00,
2014-11-22 08:25:00,41.6,40.8,29.80,NNW,344,2.0,3.0,97,0.24,,,0.10,Wunderground v.1.15,2014-11-22 16:25:00,
2014-11-22 08:30:00,41.5,40.7,29.81,NNW,344,1.0,1.0,97,0.13,,,0.11,Wunderground v.1.15,2014-11-22 16:30:00,
2014-11-22 08:40:00,41.4,40.6,29.80,NNW,344,1.0,1.0,97,0.08,,,0.12,Wunderground v.1.15,2014-11-22 16:40:00,
2014-11-22 08:45:00,41.5,40.7,29.80,NNW,344,2.0,2.0,97,0.05,,,0.13,Wunderground v.1.15,2014-11-22 16:45:00,
2014-11-22 08:55:00,41.6,40.8,29.80,NE,48,2.0,3.0,97,0.05,,,0.13,Wunderground v.1.15,2014-11-22 16:55:00,
2014-11-22 09:00:00,41.7,40.9,29.80,NE,48,1.0,2.0,97,0.04,,,0.13,Wunderground v.1.15,2014-11-22 17:00:00,
2014-11-22 09:05:00,41.8,41.0,29.80,NE,48,1.0,2.0,97,0.00,,,0.13,Wunderground v.1.15,2014-11-22 17:05:00,
2014-11-22 09:15:00,42.0,41.2,29.81,SE,135,3.0,3.0,97,0.00,,,0.13,Wunderground v.1.15,2014-11-22 17:15:00,
2014-11-22 09:20:00,42.0,41.2,29.81,SE,135,1.0,1.0,97,0.00,,,0.14,Wunderground v.1.15,2014-11-22 17:20:00,
2014-11-22 09:30:00,42.1,41.3,29.81,SE,135,0.0,2.0,97,0.08,,,0.15,Wunderground v.1.15,2014-11-22 17:30:00,
2014-11-22 09:35:00,42.2,41.4,29.82,SE,135,1.0,2.0,97,0.05,,,0.16,Wunderground v.1.15,2014-11-22 17:35:00,
2014-11-22 09:45:00,42.2,41.4,29.83,SE,135,1.0,1.0,97,0.16,,,0.19,Wunderground v.1.15,2014-11-22 17:45:00,
2014-11-22 09:55:00,42.2,41.4,29.82,East,100,1.0,1.0,97,0.07,,,0.20,Wunderground v.1.15,2014-11-22 17:55:00,
2014-11-22 10:00:00,42.2,41.4,29.83,East,100,0.0,0.0,97,0.07,,,0.20,Wunderground v.1.15,2014-11-22 18:00:00,
2014-11-22 10:10:00,42.1,41.3,29.83,East,100,0.0,0.0,97,0.00,,,0.20,Wunderground v.1.15,2014-11-22 18:10:00,
2014-11-22 10:15:00,42.2,41.4,29.83,East,100,0.0,0.0,97,0.00,,,0.20,Wunderground v.1.15,2014-11-22 18:15:00,
2014-11-22 10:25:00,42.2,41.4,29.84,East,100,0.0,1.0,97,0.00,,,0.20,Wunderground v.1.15,2014-11-22 18:25:00,
2014-11-22 10:30:00,42.2,41.4,29.85,East,100,0.0,0.0,97,0.00,,,0.20,Wunderground v.1.15,2014-11-22 18:30:00,
2014-11-22 10:40:00,42.3,41.5,29.86,East,100,0.0,0.0,97,0.00,,,0.20,Wunderground v.1.15,2014-11-22 18:40:00,
2014-11-22 10:45:00,42.4,41.6,29.86,East,100,0.0,0.0,97,0.00,,,0.20,Wunderground v.1.15,2014-11-22 18:45:00,
2014-11-22 10:55:00,42.4,41.6,29.87,East,100,0.0,0.0,97,0.00,,,0.20,Wunderground v.1.15,2014-11-22 18:55:00,
2014-11-22 11:00:00,42.4,41.6,29.87,East,100,0.0,0.0,97,0.00,,,0.20,Wunderground v.1.15,2014-11-22 19:00:00,
2014-11-22 11:10:00,42.5,41.7,29.88,East,100,0.0,0.0,97,0.00,,,0.20,Wunderground v.1.15,2014-11-22 19:10:00,
2014-11-22 11:15:00,42.6,41.8,29.88,East,100,0.0,0.0,97,0.00,,,0.21,Wunderground v.1.15,2014-11-22 19:15:00,
2014-11-22 11:25:00,43.1,42.6,29.89,East,100,1.0,2.0,98,0.00,,,0.21,Wunderground v.1.15,2014-11-22 19:25:00,
2014-11-22 11:30:00,43.4,42.6,29.89,East,100,1.0,1.0,97,0.00,,,0.21,Wunderground v.1.15,2014-11-22 19:30:00,
2014-11-22 11:40:00,44.1,43.6,29.89,East,100,1.0,2.0,98,0.00,,,0.21,Wunderground v.1.15,2014-11-22 19:40:00,
2014-11-22 11:45:00,44.3,43.8,29.90,East,100,1.0,2.0,98,0.00,,,0.21,Wunderground v.1.15,2014-11-22 19:45:00,
2014-11-22 11:55:00,44.5,43.7,29.90,East,100,1.0,2.0,97,0.00,,,0.21,Wunderground v.1.15,2014-11-22 19:55:00,
2014-11-22 12:00:00,44.8,44.0,29.91,NNW,344,2.0,3.0,97,0.00,,,0.21,Wunderground v.1.15,2014-11-22 20:00:00,
2014-11-22 12:10:00,45.8,45.0,29.91,WNW,293,5.0,7.0,97,0.00,,,0.21,Wunderground v.1.15,2014-11-22 20:10:00,
2014-11-22 12:15:00,46.9,46.1,29.92,West,265,6.0,10.0,97,0.00,,,0.21,Wunderground v.1.15,2014-11-22 20:15:00,
2014-11-22 12:20:00,47.2,45.8,29.92,WNW,286,6.0,7.0,95,0.00,,,0.21,Wunderground v.1.15,2014-11-22 20:20:00,
2014-11-22 12:30:00,48.0,46.1,29.92,West,279,7.0,12.0,93,0.00,,,0.21,Wunderground v.1.15,2014-11-22 20:30:00,
2014-11-22 12:35:00,48.0,45.5,29.93,West,279,8.0,12.0,91,0.00,,,0.21,Wunderground v.1.15,2014-11-22 20:35:00,
2014-11-22 12:45:00,48.2,45.1,29.93,West,275,11.0,11.0,89,0.00,,,0.21,Wunderground v.1.15,2014-11-22 20:45:00,
2014-11-22 12:55:00,48.4,45.0,29.93,West,278,8.0,10.0,88,0.00,,,0.21,Wunderground v.1.15,2014-11-22 20:55:00,
2014-11-22 13:00:00,48.8,45.1,29.94,WNW,289,9.0,12.0,87,0.00,,,0.21,Wunderground v.1.15,2014-11-22 21:00:00,
2014-11-22 13:10:00,48.9,45.2,29.94,WNW,285,9.0,9.0,87,0.00,,,0.21,Wunderground v.1.15,2014-11-22 21:10:00,
2014-11-22 13:15:00,49.1,45.4,29.94,WNW,283,8.0,10.0,87,0.00,,,0.21,Wunderground v.1.15,2014-11-22 21:15:00,
2014-11-22 13:25:00,49.5,44.9,29.95,West,262,11.0,11.0,84,0.00,,,0.21,Wunderground v.1.15,2014-11-22 21:25:00,
2014-11-22 13:30:00,49.6,45.0,29.95,WSW,255,11.0,11.0,84,0.00,,,0.21,Wunderground v.1.15,2014-11-22 21:30:00,
2014-11-22 13:40:00,49.7,44.7,29.96,West,265,10.0,13.0,83,0.00,,,0.21,Wunderground v.1.15,2014-11-22 21:40:00,
2014-11-22 13:45:00,49.7,44.7,29.96,West,271,10.0,13.0,83,0.00,,,0.21,Wunderground v.1.15,2014-11-22 21:45:00,
2014-11-22 13:50:00,49.9,44.6,29.96,West,264,12.0,12.0,82,0.00,,,0.21,Wunderground v.1.15,2014-11-22 21:50:00,
2014-11-22 13:55:00,50.0,44.4,29.96,West,278,13.0,17.0,81,0.00,,,0.21,Wunderground v.1.15,2014-11-22 21:55:00,
2014-11-22 14:00:00,50.1,44.5,29.97,WNW,298,15.0,15.0,81,0.00,,,0.21,Wunderground v.1.15,2014-11-22 22:00:00,
2014-11-22 14:10:00,50.2,44.6,29.97,West,271,14.0,21.0,81,0.00,,,0.21,Wunderground v.1.15,2014-11-22 22:10:00,
2014-11-22 14:15:00,50.0,44.4,29.98,West,272,14.0,21.0,81,0.00,,,0.21,Wunderground v.1.15,2014-11-22 22:15:00,
2014-11-22 14:25:00,50.2,44.3,29.98,WNW,288,14.0,15.0,80,0.00,,,0.21,Wunderground v.1.15,2014-11-22 22:25:00,
2014-11-22 14:30:00,50.0,44.4,29.98,West,271,13.0,13.0,81,0.00,,,0.21,Wunderground v.1.15,2014-11-22 22:30:00,
2014-11-22 14:40:00,50.1,44.2,29.98,West,277,13.0,13.0,80,0.00,,,0.21,Wunderground v.1.15,2014-11-22 22:40:00,
2014-11-22 14:45:00,50.0,44.4,29.98,West,265,13.0,13.0,81,0.00,,,0.21,Wunderground v.1.15,2014-11-22 22:45:00,
2014-11-22 14:50:00,49.8,44.2,29.99,West,259,12.0,12.0,81,0.00,,,0.21,Wunderground v.1.15,2014-11-22 22:50:00,
2014-11-22 15:00:00,49.7,44.4,30.00,West,267,11.0,11.0,82,0.00,,,0.21,Wunderground v.1.15,2014-11-22 23:00:00,
2014-11-22 15:05:00,49.8,44.5,30.00,WNW,284,12.0,12.0,82,0.00,,,0.21,Wunderground v.1.15,2014-11-22 23:05:00,
2014-11-22 15:10:00,49.8,44.5,30.01,WNW,300,11.0,11.0,82,0.00,,,0.21,Wunderground v.1.15,2014-11-22 23:10:00,
2014-11-22 15:20:00,50.2,44.9,30.01,West,279,10.0,13.0,82,0.00,,,0.21,Wunderground v.1.15,2014-11-22 23:20:00,
2014-11-22 15:25:00,49.9,45.3,30.02,WNW,294,10.0,13.0,84,0.00,,,0.21,Wunderground v.1.15,2014-11-22 23:25:00,
2014-11-22 15:30:00,49.6,43.7,30.01,WNW,292,10.0,10.0,80,0.00,,,0.22,Wunderground v.1.15,2014-11-22 23:30:00,
2014-11-22 15:40:00,49.9,44.9,30.02,West,273,5.0,13.0,83,0.00,,,0.22,Wunderground v.1.15,2014-11-22 23:40:00,
2014-11-22 15:45:00,50.0,44.7,30.02,WSW,240,7.0,13.0,82,0.00,,,0.22,Wunderground v.1.15,2014-11-22 23:45:00,
2014-11-22 15:55:00,49.8,44.2,30.03,West,268,8.0,10.0,81,0.00,,,0.22,Wunderground v.1.15,2014-11-22 23:55:00,
2014-11-22 16:00:00,49.8,44.2,30.03,WSW,257,8.0,8.0,81,0.00,,,0.22,Wunderground v.1.15,2014-11-23 00:00:00,
2014-11-22 16:05:00,49.6,44.0,30.03,WSW,252,8.0,9.0,81,0.00,,,0.22,Wunderground v.1.15,2014-11-23 00:05:00,
2014-11-22 16:10:00,49.4,43.8,30.03,WSW,251,8.0,8.0,81,0.00,,,0.22,Wunderground v.1.15,2014-11-23 00:10:00,
2014-11-22 16:20:00,49.4,43.8,30.04,West,269,8.0,11.0,81,0.00,,,0.22,Wunderground v.1.15,2014-11-23 00:20:00,
2014-11-22 16:25:00,49.5,43.9,30.04,West,277,8.0,11.0,81,0.00,,,0.22,Wunderground v.1.15,2014-11-23 00:25:00,
2014-11-22 16:30:00,49.4,43.8,30.04,West,266,8.0,8.0,81,0.00,,,0.22,Wunderground v.1.15,2014-11-23 00:30:00,
2014-11-22 16:40:00,49.3,43.7,30.05,West,267,5.0,5.0,81,0.00,,,0.22,Wunderground v.1.15,2014-11-23 00:40:00,
2014-11-22 16:45:00,49.2,43.9,30.05,West,263,4.0,5.0,82,0.00,,,0.22,Wunderground v.1.15,2014-11-23 00:45:00,
2014-11-22 16:55:00,49.1,43.8,30.05,WSW,258,3.0,4.0,82,0.00,,,0.22,Wunderground v.1.15,2014-11-23 00:55:00,
2014-11-22 17:00:00,49.1,43.8,30.05,WSW,255,3.0,3.0,82,0.00,,,0.22,Wunderground v.1.15,2014-11-23 01:00:00,
2014-11-22 17:10:00,49.4,44.1,30.06,WSW,241,5.0,5.0,82,0.00,,,0.22,Wunderground v.1.15,2014-11-23 01:10:00,
2014-11-22 17:15:00,49.5,43.9,30.07,WSW,245,4.0,6.0,81,0.00,,,0.22,Wunderground v.1.15,2014-11-23 01:15:00,
2014-11-22 17:20:00,49.5,43.9,30.07,WSW,248,4.0,4.0,81,0.00,,,0.22,Wunderground v.1.15,2014-11-23 01:20:00,
2014-11-22 17:30:00,49.4,43.2,30.07,West,259,3.0,3.0,79,0.00,,,0.22,Wunderground v.1.15,2014-11-23 01:30:00,
2014-11-22 17:35:00,49.4,43.2,30.07,WSW,247,3.0,3.0,79,0.00,,,0.22,Wunderground v.1.15,2014-11-23 01:35:00,
2014-11-22 17:40:00,49.5,42.9,30.08,WNW,288,3.0,3.0,78,0.00,,,0.22,Wunderground v.1.15,2014-11-23 01:40:00,
2014-11-22 17:50:00,49.2,43.0,30.09,SW,232,2.0,2.0,79,0.00,,,0.22,Wunderground v.1.15,2014-11-23 01:50:00,
2014-11-22 17:55:00,49.0,43.1,30.09,SW,233,2.0,2.0,80,0.00,,,0.22,Wunderground v.1.15,2014-11-23 01:55:00,
2014-11-22 18:00:00,48.9,43.0,30.09,SW,232,1.0,1.0,80,0.00,,,0.22,Wunderground v.1.15,2014-11-23 02:00:00,
2014-11-22 18:10:00,48.6,43.0,30.09,West,272,1.0,1.0,81,0.00,,,0.22,Wunderground v.1.15,2014-11-23 02:10:00,
2014-11-22 18:15:00,48.2,42.6,30.10,WNW,291,1.0,3.0,81,0.00,,,0.22,Wunderground v.1.15,2014-11-23 02:15:00,
2014-11-22 18:24:00,45.9,41.3,30.10,ENE,76,3.0,3.0,84,0.00,,,0.22,Wunderground v.1.15,2014-11-23 02:24:00,
2014-11-22 18:30:00,45.5,41.6,30.10,ENE,76,3.0,3.0,86,0.00,,,0.22,Wunderground v.1.15,2014-11-23 02:30:00,
2014-11-22 18:35:00,45.3,41.7,30.10,ENE,67,2.0,3.0,87,0.00,,,0.22,Wunderground v.1.15,2014-11-23 02:35:00,
2014-11-22 18:40:00,45.2,41.6,30.11,ENE,67,1.0,1.0,87,0.00,,,0.22,Wunderground v.1.15,2014-11-23 02:40:00,
2014-11-22 18:50:00,45.2,41.9,30.11,ENE,68,0.0,0.0,88,0.00,,,0.22,Wunderground v.1.15,2014-11-23 02:50:00,
2014-11-22 18:55:00,45.2,41.9,30.11,ENE,68,0.0,0.0,88,0.00,,,0.22,Wunderground v.1.15,2014-11-23 02:55:00,
2014-11-22 19:00:00,44.9,41.6,30.10,ENE,68,0.0,0.0,88,0.00,,,0.22,Wunderground v.1.15,2014-11-23 03:00:00,
2014-11-22 19:10:00,44.5,41.5,30.11,ENE,68,0.0,0.0,89,0.00,,,0.22,Wunderground v.1.15,2014-11-23 03:10:00,
2014-11-22 19:15:00,44.4,41.4,30.11,ENE,68,0.0,0.0,89,0.00,,,0.22,Wunderground v.1.15,2014-11-23 03:15:00,
2014-11-22 19:25:00,44.3,41.6,30.12,ENE,68,0.0,0.0,90,0.00,,,0.22,Wunderground v.1.15,2014-11-23 03:25:00,
2014-11-22 19:30:00,44.3,41.8,30.12,ENE,68,0.0,0.0,91,0.00,,,0.22,Wunderground v.1.15,2014-11-23 03:30:00,
2014-11-22 19:40:00,44.3,42.1,30.13,ENE,68,0.0,2.0,92,0.00,,,0.22,Wunderground v.1.15,2014-11-23 03:40:00,
2014-11-22 19:45:00,44.2,42.0,30.13,ENE,68,0.0,2.0,92,0.00,,,0.22,Wunderground v.1.15,2014-11-23 03:45:00,
2014-11-22 19:55:00,44.0,42.1,30.14,NNE,30,2.0,3.0,93,0.00,,,0.22,Wunderground v.1.15,2014-11-23 03:55:00,
2014-11-22 20:05:00,43.1,40.9,30.13,NNE,30,1.0,3.0,92,0.00,,,0.22,Wunderground v.1.15,2014-11-23 04:05:00,
2014-11-22 20:10:00,42.8,40.9,30.13,NNE,30,0.0,0.0,93,0.00,,,0.22,Wunderground v.1.15,2014-11-23 04:10:00,
2014-11-22 20:15:00,42.8,40.9,30.14,NNE,30,0.0,1.0,93,0.00,,,0.22,Wunderground v.1.15,2014-11-23 04:15:00,
2014-11-22 20:25:00,42.9,41.0,30.13,NNE,31,1.0,1.0,93,0.00,,,0.22,Wunderground v.1.15,2014-11-23 04:25:00,
2014-11-22 20:30:00,42.8,41.2,30.13,NNE,31,1.0,2.0,94,0.00,,,0.22,Wunderground v.1.15,2014-11-23 04:30:00,
2014-11-22 20:35:00,42.8,41.2,30.14,ESE,122,1.0,2.0,94,0.00,,,0.22,Wunderground v.1.15,2014-11-23 04:35:00,
2014-11-22 20:44:00,42.7,41.1,30.14,ESE,122,0.0,1.0,94,0.00,,,0.22,Wunderground v.1.15,2014-11-23 04:44:00,
2014-11-22 20:50:00,42.8,41.5,30.15,ESE,122,0.0,0.0,95,0.00,,,0.22,Wunderground v.1.15,2014-11-23 04:50:00,
2014-11-22 20:55:00,42.7,41.1,30.15,ESE,122,1.0,1.0,94,0.00,,,0.22,Wunderground v.1.15,2014-11-23 04:55:00,
2014-11-22 21:05:00,42.7,41.1,30.15,ESE,122,0.0,1.0,94,0.00,,,0.22,Wunderground v.1.15,2014-11-23 05:05:00,
2014-11-22 21:10:00,42.3,40.7,30.15,ESE,122,1.0,2.0,94,0.00,,,0.22,Wunderground v.1.15,2014-11-23 05:10:00,
2014-11-22 21:15:00,41.9,40.3,30.15,ESE,122,2.0,2.0,94,0.00,,,0.22,Wunderground v.1.15,2014-11-23 05:15:00,
2014-11-22 21:25:00,41.9,40.6,30.16,ESE,122,1.0,2.0,95,0.00,,,0.22,Wunderground v.1.15,2014-11-23 05:25:00,
2014-11-22 21:35:00,42.3,41.0,30.17,ESE,117,2.0,2.0,95,0.00,,,0.23,Wunderground v.1.15,2014-11-23 05:35:00,
2014-11-22 21:45:00,42.5,41.2,30.17,ESE,117,0.0,1.0,95,0.00,,,0.23,Wunderground v.1.15,2014-11-23 05:45:00,
2014-11-22 21:55:00,42.8,41.5,30.17,SE,136,1.0,2.0,95,0.00,,,0.23,Wunderground v.1.15,2014-11-23 05:55:00,
2014-11-22 22:00:00,42.7,41.4,30.17,SE,136,1.0,1.0,95,0.00,,,0.23,Wunderground v.1.15,2014-11-23 06:00:00,
2014-11-22 22:10:00,42.6,41.3,30.17,SE,136,0.0,1.0,95,0.00,,,0.23,Wunderground v.1.15,2014-11-23 06:10:00,
2014-11-22 22:15:00,42.7,41.6,30.18,ENE,74,1.0,1.0,96,0.00,,,0.23,Wunderground v.1.15,2014-11-23 06:15:00,
2014-11-22 22:25:00,42.6,41.3,30.18,ENE,74,1.0,1.0,95,0.00,,,0.23,Wunderground v.1.15,2014-11-23 06:25:00,
2014-11-22 22:30:00,42.6,41.3,30.18,ENE,74,1.0,1.0,95,0.00,,,0.23,Wunderground v.1.15,2014-11-23 06:30:00,
2014-11-22 22:40:00,42.5,41.2,30.19,ENE,74,0.0,0.0,95,0.00,,,0.23,Wunderground v.1.15,2014-11-23 06:40:00,
2014-11-22 22:45:00,42.5,41.2,30.19,ENE,74,0.0,2.0,95,0.00,,,0.23,Wunderground v.1.15,2014-11-23 06:45:00,
2014-11-22 22:54:00,42.6,41.3,30.19,ENE,74,0.0,1.0,95,0.00,,,0.23,Wunderground v.1.15,2014-11-23 06:54:00,
2014-11-22 22:59:00,42.5,41.2,30.19,ENE,74,0.0,0.0,95,0.00,,,0.23,Wunderground v.1.15,2014-11-23 06:59:00,
2014-11-22 23:05:00,42.2,40.9,30.19,ENE,74,0.0,2.0,95,0.00,,,0.23,Wunderground v.1.15,2014-11-23 07:05:00,
2014-11-22 23:10:00,42.1,40.8,30.19,ENE,74,0.0,1.0,95,0.00,,,0.23,Wunderground v.1.15,2014-11-23 07:10:00,
2014-11-22 23:15:00,41.9,40.6,30.19,South,186,1.0,1.0,95,0.00,,,0.23,Wunderground v.1.15,2014-11-23 07:15:00,
2014-11-22 23:25:00,41.7,40.4,30.20,SSW,198,1.0,1.0,95,0.00,,,0.23,Wunderground v.1.15,2014-11-23 07:25:00,